Currently 54°F in Riverside (Presidential Park), California, USA
54°F
54°F / 45°F
1 mph SW
0.19"
Sunday, February 26, 2017 3:30 PM PST

Riverside (Presidential Park), California Weather Summary
Last 36 Hours

Temperature Winds Hourly Humidity Dewpoint
Time Report Norm Report Norm Max Gusts Precip. Rpt. Norm Rpt. Norm Pressure
1Sun 03:30 PM  53.6°F  70°F  1 mph SW  6 mph  4 mph  0.00"  85%  35%  49°F  41°F  29.93"
Sun 03:00 PM  53.9°F  70°F  1 mph SW  6 mph  5 mph  0.00"  83%  35%  49°F  40°F  29.93"
2Sun 02:42 PM  54.3°F  70°F  2 mph S  6 mph  4 mph  ----  83%  35%  49°F  40°F  29.93"
Sun 02:00 PM  53.3°F  69°F  2 mph NW  5 mph  3 mph  0.02"  86%  36%  49°F  40°F  29.94"
Sun 01:00 PM  52.7°F  69°F  1 mph SW  4 mph  5 mph  0.05"  84%  37%  48°F  40°F  29.96"
Sun 12:00 PM  54.1°F  68°F  1 mph SE  4 mph  8 mph  0.01"  77%  39%  47°F  41°F  29.99"
Sun 11:00 AM  52.9°F  66°F  2 mph NE  3 mph  8 mph  0.00"  78%  44%  46°F  42°F  30.02"
Sun 10:00 AM  51.0°F  63°F  5 mph E  3 mph  8 mph  0.00"  82%  51%  46°F  43°F  30.01"
Sun 09:00 AM  49.3°F  58°F  3 mph NE  2 mph  7 mph  0.00"  91%  60%  47°F  44°F  30.01"
Sun 08:00 AM  47.2°F  52°F  1 mph E  1 mph  5 mph  0.00"  92%  72%  45°F  42°F  30.01"
Sun 07:00 AM  46.6°F  48°F  calm  1 mph  3 mph  0.01"  92%  76%  44°F  41°F  30.00"
Sun 06:00 AM  47.1°F  48°F  1 mph W  1 mph  7 mph  0.04"  92%  76%  45°F  41°F  29.99"
Sun 05:00 AM  47.9°F  49°F  4 mph SW  1 mph  7 mph  0.06"  91%  75%  45°F  41°F  29.98"
Sun 04:00 AM  48.0°F  49°F  calm  1 mph  3 mph  0.00"  86%  74%  44°F  41°F  29.96"
Sun 03:00 AM  46.5°F  50°F  calm  1 mph  3 mph  0.00"  87%  73%  43°F  41°F  29.97"
Sun 02:00 AM  45.3°F  51°F  calm  1 mph  5 mph  0.00"  88%  71%  42°F  41°F  29.98"
3Sun 01:51 AM  44.7°F  51°F  calm  1 mph  3 mph  ----  87%  71%  41°F  41°F  29.98"
Sun 01:00 AM  46.4°F  52°F  1 mph SE  1 mph  5 mph  0.00"  86%  70%  42°F  42°F  30.00"
Sun 12:00 AM  48.7°F  53°F  calm  1 mph  4 mph  0.00"  83%  69%  44°F  42°F  30.00"
Sat 11:00 PM  50.5°F  54°F  3 mph NE  2 mph  5 mph  0.00"  82%  68%  45°F  43°F  30.01"
Sat 10:00 PM  51.7°F  55°F  4 mph NW  2 mph  7 mph  0.00"  79%  65%  45°F  43°F  30.01"
Sat 09:00 PM  52.6°F  57°F  4 mph W  1 mph  12 mph  0.00"  75%  61%  45°F  43°F  30.01"
Sat 08:00 PM  54.1°F  59°F  1 mph E  2 mph  7 mph  0.00"  67%  57%  43°F  43°F  29.98"
Sat 07:00 PM  54.6°F  62°F  2 mph W  2 mph  9 mph  0.00"  66%  50%  43°F  43°F  29.99"
Sat 06:00 PM  55.7°F  65°F  3 mph W  4 mph  8 mph  0.00"  63%  45%  43°F  42°F  29.98"
Sat 05:00 PM  57.2°F  68°F  1 mph SW  6 mph  12 mph  0.00"  62%  40%  44°F  42°F  29.98"
Sat 04:00 PM  59.1°F  70°F  8 mph SW  6 mph  18 mph  0.00"  58%  36%  44°F  41°F  30.00"
Sat 03:00 PM  62.4°F  70°F  8 mph SW  6 mph  14 mph  0.00"  43%  36%  39°F  41°F  29.99"
Sat 02:00 PM  62.7°F  69°F  8 mph W  5 mph  10 mph  0.00"  43%  37%  39°F  41°F  30.01"
Sat 01:00 PM  62.3°F  69°F  4 mph W  4 mph  10 mph  0.00"  40%  38%  37°F  41°F  30.03"
Sat 12:00 PM  61.6°F  68°F  1 mph SE  4 mph  5 mph  0.00"  43%  40%  38°F  42°F  30.06"
Sat 11:00 AM  58.3°F  65°F  calm  3 mph  5 mph  0.00"  48%  45%  38°F  43°F  30.10"
Sat 10:00 AM  54.6°F  62°F  calm  3 mph  4 mph  0.00"  56%  52%  38°F  44°F  30.12"
Sat 09:00 AM  49.8°F  58°F  calm  2 mph  3 mph  0.00"  69%  61%  40°F  44°F  30.12"
Sat 08:00 AM  42.5°F  52°F  1 mph S  1 mph  4 mph  0.00"  84%  72%  38°F  43°F  30.13"
Sat 07:00 AM  38.7°F  48°F  1 mph SE  1 mph  2 mph  0.00"  87%  76%  35°F  41°F  30.12"
Sat 06:00 AM  38.7°F  48°F  1 mph SE  1 mph  2 mph  0.00"  86%  76%  35°F  41°F  30.11"
Sat 05:00 AM  39.1°F  49°F  1 mph SE  1 mph  3 mph  0.00"  85%  76%  35°F  41°F  30.10"
Sat 04:00 AM  39.9°F  49°F  calm  1 mph  1 mph  0.00"  84%  75%  35°F  41°F  30.11"

  1. Current weather data. No green row appears if the current weather data is also the high or low for the current day.
  2. High temperature for the current day.
  3. Low temperature for the current day.

The Riverside (Presidential Park), California weather pages are a service of WeatherCurrents.
Copyright ©Sun Feb 26 15:30:59 PST 2017  WeatherCurrents. All rights reserved. - Submit questions and comments - Privacy Policy

This page automatically refreshes every 10 minutes.